WetterOnline ( https://www.wetteronline.de )

Wetter aktuell Malente

Aktuelles Wetter: Dörnick (28m)

6-stündlich | Neueste Meldungen
Ortszeit Temperatur Wetter
Sa, 22.01. 19:00 5.9° C bedeckt
Sa, 22.01. 13:00 6.0° C bedeckt
Sa, 22.01. 7:00 3.8° C bedeckt
Sa, 22.01. 1:00 5.3° C bewölkt
Fr, 21.01. 19:00 3.9° C leichter Regen
Fr, 21.01. 13:00 3.0° C leicht bewölkt
Fr, 21.01. 7:00 -0.9° C fast wolkenlos
Fr, 21.01. 1:00 -1.5° C wolkenlos
Ortszeit Temperatur Wetter
So, 23.01. 0:30 5.5° C Sprühregen
So, 23.01. 0:20 5.5° C Sprühregen
So, 23.01. 0:10 5.5° C bewölkt
So, 23.01. 0:00 5.5° C bewölkt
Sa, 22.01. 23:50 5.5° C bewölkt
Sa, 22.01. 23:40 5.5° C bedeckt
Sa, 22.01. 23:30 5.5° C Sprühregen
Sa, 22.01. 23:00 5.6° C bedeckt
Sa, 22.01. 22:30 5.5° C bedeckt
Sa, 22.01. 22:00 5.6° C bedeckt
Sa, 22.01. 21:30 5.6° C bedeckt
Ortszeit Relative Feuchte Sichtweite
Sa, 22.01. 19:00 93% 35 km
Sa, 22.01. 13:00 93% 19 km
Sa, 22.01. 7:00 97% 8 km
Sa, 22.01. 1:00 93% 35 km
Fr, 21.01. 19:00 97% 8 km
Fr, 21.01. 13:00 69% 40 km
Fr, 21.01. 7:00 74% 35 km
Fr, 21.01. 1:00 69% 55 km
Ortszeit Relative Feuchte Sichtweite
So, 23.01. 0:30 95% 3.8 km
So, 23.01. 0:20 95% -
So, 23.01. 0:10 95% -
So, 23.01. 0:00 95% 19 km
Sa, 22.01. 23:50 95% -
Sa, 22.01. 23:40 95% -
Sa, 22.01. 23:30 94% 8 km
Sa, 22.01. 23:00 93% 21 km
Sa, 22.01. 22:30 93% 30 km
Sa, 22.01. 22:00 92% 50 km
Sa, 22.01. 21:30 93% 45 km
Ortszeit Niederschlagsmenge Niederschlagsart
Sa, 22.01. 19:00 1 l/m2 in 12 Std. Regen
Sa, 22.01. 13:00 0.8 l/m2 in 6 Std. Regen
Sa, 22.01. 7:00 0.3 l/m2 in 12 Std. -
Sa, 22.01. 1:00 0.3 l/m2 in 6 Std. Regen
Fr, 21.01. 19:00 0.1 l/m2 in 12 Std. Regen
Fr, 21.01. 13:00 0.0 l/m2 in 6 Std. -
Fr, 21.01. 7:00 0.0 l/m2 in 12 Std. -
Fr, 21.01. 1:00 0.0 l/m2 in 6 Std. -
Ortszeit Niederschlagsmenge Niederschlagsart
So, 23.01. 0:30 0.1 l/m2 in 1 Std. -
So, 23.01. 0:20 keine Meldung -
So, 23.01. 0:10 keine Meldung -
So, 23.01. 0:00 0.1 l/m2 in 1 Std. Sprühregen
Sa, 22.01. 23:50 keine Meldung -
Sa, 22.01. 23:40 keine Meldung -
Sa, 22.01. 23:30 0.1 l/m2 in 1 Std. -
Sa, 22.01. 23:00 0.1 l/m2 in 1 Std. Sprühregen
Sa, 22.01. 22:30 0.1 l/m2 in 1 Std. Schnee
Sa, 22.01. 22:00 0.1 l/m2 in 1 Std. Regen
Sa, 22.01. 21:30 0.1 l/m2 in 1 Std. Schnee
Ortszeit Stärke Spitze Richtung
km/h Bft. km/h Grad Sektor
Sa, 22.01. 19:00 14 3 25 290° W
Sa, 22.01. 13:00 7 2 20 300° NW
Sa, 22.01. 7:00 0 0 18 - -
Sa, 22.01. 1:00 11 2 29 310° NW
Fr, 21.01. 19:00 17 3 30 280° W
Fr, 21.01. 13:00 14 3 25 270° W
Fr, 21.01. 7:00 14 3 25 310° NW
Fr, 21.01. 1:00 9 2 33 280° W
Ortszeit Stärke Spitze Richtung
km/h Bft. km/h Grad Sektor
So, 23.01. 0:30 13 3 19 280° W
So, 23.01. 0:20 13 3 - 280° W
So, 23.01. 0:10 11 2 - 280° W
So, 23.01. 0:00 11 2 29 270° W
Sa, 22.01. 23:50 11 2 - 270° W
Sa, 22.01. 23:40 11 2 - 270° W
Sa, 22.01. 23:30 11 2 29 270° W
Sa, 22.01. 23:00 14 3 22 280° W
Sa, 22.01. 22:30 13 3 19 280° W
Sa, 22.01. 22:00 11 2 29 290° W
Sa, 22.01. 21:30 13 3 19 290° W
Ortszeit Untergrenze Bedeckung Gattung
total tief tief mittel hoch
Sa, 22.01. 19:00 240 m 8/8 8/8 - - -
Sa, 22.01. 13:00 210 m 8/8 8/8 - - -
Sa, 22.01. 7:00 180 m 8/8 8/8 - - -
Sa, 22.01. 1:00 300 m 7/8 7/8 - - -
Fr, 21.01. 19:00 90 m 8/8 8/8 - - -
Fr, 21.01. 13:00 720 m 3/8 3/8 - - -
Fr, 21.01. 7:00 8400 m 2/8 0/8 - - -
Fr, 21.01. 1:00 - 0/8 0/8 - - -
Ortszeit Bedeckungsgrad in Achtel und Wolkenuntergrenze
So, 23.01. 0:30 7(210m) 7(330m)
So, 23.01. 0:20 7(210m) 7(330m)
So, 23.01. 0:10 1(120m) 7(240m) 7(360m)
So, 23.01. 0:00 6(240m) 7(360m) 7(570m)
Sa, 22.01. 23:50 6(240m) 7(360m) 7(570m)
Sa, 22.01. 23:40 5(210m) 7(360m) 8(690m)
Sa, 22.01. 23:30 1(60m) 5(540m) 8(660m)
Sa, 22.01. 23:00 3(270m) 3(420m) 8(720m)
Sa, 22.01. 22:30 6(240m) 7(570m) 8(780m)
Sa, 22.01. 22:00 3(390m) 8(570m) 8(660m)
Sa, 22.01. 21:30 2(270m) 6(390m) 8(540m)
Ortszeit Luftdruck NN (hPa) Tendenz (hPa in 3 Std.)
Sa, 22.01. 19:00 1029 + 0,8
Sa, 22.01. 13:00 1029 + 0,6
Sa, 22.01. 7:00 1027 + 1,0
Sa, 22.01. 1:00 1025 + 1,2
Fr, 21.01. 19:00 1024 - 1,3
Fr, 21.01. 13:00 1027 - 0,2
Fr, 21.01. 7:00 1026 + 0,9
Fr, 21.01. 1:00 1026 + 1,6
Ortszeit Luftdruck NN (hPa) Tendenz (hPa in 3 Std.)
So, 23.01. 0:30 1030 + 0,5
So, 23.01. 0:20 1030 keine Meldung
So, 23.01. 0:10 1030 keine Meldung
So, 23.01. 0:00 1030 + 0,4
Sa, 22.01. 23:50 1030 keine Meldung
Sa, 22.01. 23:40 1030 keine Meldung
Sa, 22.01. 23:30 1030 + 0,4
Sa, 22.01. 23:00 1030 + 0,6
Sa, 22.01. 22:30 1030 + 0,5
Sa, 22.01. 22:00 1030 + 0,7
Sa, 22.01. 21:30 1030 + 0,5
Ortszeit Schneehöhe (cm)
Sa, 22.01. 19:00 0
Sa, 22.01. 13:00 0
Sa, 22.01. 7:00 0
Sa, 22.01. 1:00 0
Fr, 21.01. 19:00 0
Fr, 21.01. 13:00 0
Fr, 21.01. 7:00 0
Fr, 21.01. 1:00 0
Ortszeit Schneehöhe (cm)
So, 23.01. 0:30 0
So, 23.01. 0:20 0
So, 23.01. 0:10 0
So, 23.01. 0:00 0
Sa, 22.01. 23:50 0
Sa, 22.01. 23:40 0
Sa, 22.01. 23:30 0
Sa, 22.01. 23:00 0
Sa, 22.01. 22:30 0
Sa, 22.01. 22:00 0
Sa, 22.01. 21:30 0
Link zu dieser Seite / Seite empfehlen

Das Wetter in ...